sensor_id;sensor_type;location;lat;lon;timestamp;P1;durP1;ratioP1;P2;durP2;ratioP2
49548;SDS011;35450;44.518;7.466;2023-03-20T00:01:29;14.98;;;9.90;;
49548;SDS011;35450;44.518;7.466;2023-03-20T00:04:33;17.92;;;10.60;;
49548;SDS011;35450;44.518;7.466;2023-03-20T00:07:37;17.42;;;11.50;;
49548;SDS011;35450;44.518;7.466;2023-03-20T00:10:42;17.30;;;11.30;;
49548;SDS011;35450;44.518;7.466;2023-03-20T00:13:48;18.00;;;12.65;;
49548;SDS011;35450;44.518;7.466;2023-03-20T00:16:52;17.80;;;11.70;;
49548;SDS011;35450;44.518;7.466;2023-03-20T00:19:55;23.52;;;11.25;;
49548;SDS011;35450;44.518;7.466;2023-03-20T00:22:59;14.43;;;10.32;;
49548;SDS011;35450;44.518;7.466;2023-03-20T00:26:03;15.57;;;11.18;;
49548;SDS011;35450;44.518;7.466;2023-03-20T00:29:09;18.38;;;11.40;;
49548;SDS011;35450;44.518;7.466;2023-03-20T00:32:24;17.08;;;11.57;;
49548;SDS011;35450;44.518;7.466;2023-03-20T00:35:29;15.88;;;10.65;;
49548;SDS011;35450;44.518;7.466;2023-03-20T00:38:33;14.55;;;10.35;;
49548;SDS011;35450;44.518;7.466;2023-03-20T00:44:54;14.60;;;10.52;;
49548;SDS011;35450;44.518;7.466;2023-03-20T00:48:03;15.65;;;10.90;;
49548;SDS011;35450;44.518;7.466;2023-03-20T00:51:08;13.38;;;10.45;;
49548;SDS011;35450;44.518;7.466;2023-03-20T00:54:13;18.52;;;11.38;;
49548;SDS011;35450;44.518;7.466;2023-03-20T00:57:20;16.70;;;10.95;;
49548;SDS011;35450;44.518;7.466;2023-03-20T01:03:44;15.15;;;10.77;;
49548;SDS011;35450;44.518;7.466;2023-03-20T01:06:48;16.88;;;11.50;;
49548;SDS011;35450;44.518;7.466;2023-03-20T01:09:52;19.73;;;11.40;;
49548;SDS011;35450;44.518;7.466;2023-03-20T01:12:56;17.65;;;10.68;;
49548;SDS011;35450;44.518;7.466;2023-03-20T01:16:02;14.52;;;10.40;;
49548;SDS011;35450;44.518;7.466;2023-03-20T01:19:09;14.55;;;10.38;;
49548;SDS011;35450;44.518;7.466;2023-03-20T01:22:15;15.70;;;10.52;;
49548;SDS011;35450;44.518;7.466;2023-03-20T01:25:22;18.00;;;11.55;;
49548;SDS011;35450;44.518;7.466;2023-03-20T01:28:27;21.13;;;11.55;;
49548;SDS011;35450;44.518;7.466;2023-03-20T01:31:32;19.17;;;10.55;;
49548;SDS011;35450;44.518;7.466;2023-03-20T01:34:36;15.13;;;10.73;;
49548;SDS011;35450;44.518;7.466;2023-03-20T01:37:40;17.45;;;11.15;;
49548;SDS011;35450;44.518;7.466;2023-03-20T01:40:52;19.02;;;11.07;;
49548;SDS011;35450;44.518;7.466;2023-03-20T01:44:28;18.88;;;11.40;;
49548;SDS011;35450;44.518;7.466;2023-03-20T01:47:35;20.77;;;12.00;;
49548;SDS011;35450;44.518;7.466;2023-03-20T01:50:39;18.35;;;10.60;;
49548;SDS011;35450;44.518;7.466;2023-03-20T01:53:50;16.48;;;11.07;;
49548;SDS011;35450;44.518;7.466;2023-03-20T01:57:17;19.85;;;12.23;;
49548;SDS011;35450;44.518;7.466;2023-03-20T02:00:24;18.08;;;12.45;;
49548;SDS011;35450;44.518;7.466;2023-03-20T02:03:28;16.38;;;11.32;;
49548;SDS011;35450;44.518;7.466;2023-03-20T02:06:36;18.45;;;10.93;;
49548;SDS011;35450;44.518;7.466;2023-03-20T02:09:49;17.55;;;11.15;;
49548;SDS011;35450;44.518;7.466;2023-03-20T02:13:01;16.48;;;11.10;;
49548;SDS011;35450;44.518;7.466;2023-03-20T02:16:13;12.77;;;9.48;;
49548;SDS011;35450;44.518;7.466;2023-03-20T02:50:46;14.88;;;9.93;;
49548;SDS011;35450;44.518;7.466;2023-03-20T02:53:54;18.70;;;11.52;;
49548;SDS011;35450;44.518;7.466;2023-03-20T03:00:35;16.75;;;10.68;;
49548;SDS011;35450;44.518;7.466;2023-03-20T03:03:45;13.27;;;10.50;;
49548;SDS011;35450;44.518;7.466;2023-03-20T03:06:54;16.48;;;10.50;;
49548;SDS011;35450;44.518;7.466;2023-03-20T03:10:05;14.45;;;10.35;;
49548;SDS011;35450;44.518;7.466;2023-03-20T03:13:14;13.90;;;10.80;;
49548;SDS011;35450;44.518;7.466;2023-03-20T03:16:26;16.25;;;10.85;;
49548;SDS011;35450;44.518;7.466;2023-03-20T03:19:35;15.43;;;10.52;;
49548;SDS011;35450;44.518;7.466;2023-03-20T03:22:41;9.73;;;7.95;;
49548;SDS011;35450;44.518;7.466;2023-03-20T03:25:48;14.35;;;9.05;;
49548;SDS011;35450;44.518;7.466;2023-03-20T03:28:57;16.23;;;9.98;;
49548;SDS011;35450;44.518;7.466;2023-03-20T03:32:04;16.48;;;9.55;;
49548;SDS011;35450;44.518;7.466;2023-03-20T03:35:12;14.10;;;10.68;;
49548;SDS011;35450;44.518;7.466;2023-03-20T03:48:18;13.85;;;9.70;;
49548;SDS011;35450;44.518;7.466;2023-03-20T03:51:34;14.55;;;9.90;;
49548;SDS011;35450;44.518;7.466;2023-03-20T03:54:54;16.63;;;10.65;;
49548;SDS011;35450;44.518;7.466;2023-03-20T03:58:09;13.75;;;10.70;;
49548;SDS011;35450;44.518;7.466;2023-03-20T04:01:17;16.05;;;10.88;;
49548;SDS011;35450;44.518;7.466;2023-03-20T04:04:24;16.58;;;10.50;;
49548;SDS011;35450;44.518;7.466;2023-03-20T04:07:29;14.07;;;9.73;;
49548;SDS011;35450;44.518;7.466;2023-03-20T04:10:33;16.02;;;10.00;;
49548;SDS011;35450;44.518;7.466;2023-03-20T04:13:37;17.17;;;11.07;;
49548;SDS011;35450;44.518;7.466;2023-03-20T04:16:41;13.80;;;11.00;;
49548;SDS011;35450;44.518;7.466;2023-03-20T04:19:45;11.65;;;9.10;;
49548;SDS011;35450;44.518;7.466;2023-03-20T04:22:48;13.82;;;8.93;;
49548;SDS011;35450;44.518;7.466;2023-03-20T04:25:53;17.33;;;9.27;;
49548;SDS011;35450;44.518;7.466;2023-03-20T04:28:58;21.55;;;9.20;;
49548;SDS011;35450;44.518;7.466;2023-03-20T04:32:22;15.00;;;10.27;;
49548;SDS011;35450;44.518;7.466;2023-03-20T04:35:37;13.25;;;9.43;;
49548;SDS011;35450;44.518;7.466;2023-03-20T04:38:47;16.52;;;10.20;;
49548;SDS011;35450;44.518;7.466;2023-03-20T04:41:51;14.60;;;9.85;;
49548;SDS011;35450;44.518;7.466;2023-03-20T04:44:55;13.20;;;8.02;;
49548;SDS011;35450;44.518;7.466;2023-03-20T04:48:01;20.13;;;8.43;;
49548;SDS011;35450;44.518;7.466;2023-03-20T04:51:06;16.83;;;8.48;;
49548;SDS011;35450;44.518;7.466;2023-03-20T04:54:21;12.60;;;7.97;;
49548;SDS011;35450;44.518;7.466;2023-03-20T04:57:25;12.80;;;7.88;;
49548;SDS011;35450;44.518;7.466;2023-03-20T05:00:31;13.80;;;8.85;;
49548;SDS011;35450;44.518;7.466;2023-03-20T05:03:36;11.23;;;8.27;;
49548;SDS011;35450;44.518;7.466;2023-03-20T05:06:39;18.10;;;8.80;;
49548;SDS011;35450;44.518;7.466;2023-03-20T05:09:44;16.52;;;9.70;;
49548;SDS011;35450;44.518;7.466;2023-03-20T05:12:50;18.58;;;9.57;;
49548;SDS011;35450;44.518;7.466;2023-03-20T05:16:00;13.32;;;8.00;;
49548;SDS011;35450;44.518;7.466;2023-03-20T05:19:14;15.82;;;9.13;;
49548;SDS011;35450;44.518;7.466;2023-03-20T05:22:36;11.60;;;8.30;;
49548;SDS011;35450;44.518;7.466;2023-03-20T05:25:48;12.93;;;8.05;;
49548;SDS011;35450;44.518;7.466;2023-03-20T05:28:58;15.60;;;8.35;;
49548;SDS011;35450;44.518;7.466;2023-03-20T05:32:20;12.30;;;8.25;;
49548;SDS011;35450;44.518;7.466;2023-03-20T05:35:44;15.13;;;7.80;;
49548;SDS011;35450;44.518;7.466;2023-03-20T05:39:07;14.70;;;7.63;;
49548;SDS011;35450;44.518;7.466;2023-03-20T05:42:29;11.55;;;7.25;;
49548;SDS011;35450;44.518;7.466;2023-03-20T05:46:11;21.38;;;8.02;;
49548;SDS011;35450;44.518;7.466;2023-03-20T05:49:34;16.05;;;7.13;;
49548;SDS011;35450;44.518;7.466;2023-03-20T05:52:56;27.58;;;8.18;;
49548;SDS011;35450;44.518;7.466;2023-03-20T05:56:35;22.85;;;14.75;;
49548;SDS011;35450;44.518;7.466;2023-03-20T06:00:08;17.17;;;8.23;;
49548;SDS011;35450;44.518;7.466;2023-03-20T06:03:22;15.10;;;8.05;;
49548;SDS011;35450;44.518;7.466;2023-03-20T06:06:36;17.05;;;7.82;;
49548;SDS011;35450;44.518;7.466;2023-03-20T06:09:40;9.88;;;7.22;;
49548;SDS011;35450;44.518;7.466;2023-03-20T06:12:48;15.73;;;8.05;;
49548;SDS011;35450;44.518;7.466;2023-03-20T06:15:55;17.67;;;7.45;;
49548;SDS011;35450;44.518;7.466;2023-03-20T06:18:59;17.33;;;7.95;;
49548;SDS011;35450;44.518;7.466;2023-03-20T06:22:03;15.50;;;8.20;;
49548;SDS011;35450;44.518;7.466;2023-03-20T06:25:08;28.70;;;14.50;;
49548;SDS011;35450;44.518;7.466;2023-03-20T06:28:16;30.67;;;19.13;;
49548;SDS011;35450;44.518;7.466;2023-03-20T06:31:21;37.70;;;18.63;;
49548;SDS011;35450;44.518;7.466;2023-03-20T06:34:26;24.92;;;14.82;;
49548;SDS011;35450;44.518;7.466;2023-03-20T06:37:30;30.05;;;15.55;;
49548;SDS011;35450;44.518;7.466;2023-03-20T06:40:41;25.92;;;10.73;;
49548;SDS011;35450;44.518;7.466;2023-03-20T06:43:46;17.77;;;9.88;;
49548;SDS011;35450;44.518;7.466;2023-03-20T06:46:50;18.98;;;9.98;;
49548;SDS011;35450;44.518;7.466;2023-03-20T06:49:54;14.13;;;10.10;;
49548;SDS011;35450;44.518;7.466;2023-03-20T06:52:59;15.25;;;9.43;;
49548;SDS011;35450;44.518;7.466;2023-03-20T06:56:32;15.07;;;11.43;;
49548;SDS011;35450;44.518;7.466;2023-03-20T06:59:36;23.67;;;11.68;;
49548;SDS011;35450;44.518;7.466;2023-03-20T07:02:40;17.40;;;11.65;;
49548;SDS011;35450;44.518;7.466;2023-03-20T07:05:46;20.80;;;12.85;;
49548;SDS011;35450;44.518;7.466;2023-03-20T07:08:50;32.40;;;17.25;;
49548;SDS011;35450;44.518;7.466;2023-03-20T07:11:55;23.83;;;16.02;;
49548;SDS011;35450;44.518;7.466;2023-03-20T07:15:00;26.73;;;15.27;;
49548;SDS011;35450;44.518;7.466;2023-03-20T07:18:05;25.88;;;12.63;;
49548;SDS011;35450;44.518;7.466;2023-03-20T07:21:10;23.55;;;14.05;;
49548;SDS011;35450;44.518;7.466;2023-03-20T07:24:21;19.85;;;14.35;;
49548;SDS011;35450;44.518;7.466;2023-03-20T07:27:25;27.08;;;15.30;;
49548;SDS011;35450;44.518;7.466;2023-03-20T07:30:33;27.08;;;15.07;;
49548;SDS011;35450;44.518;7.466;2023-03-20T07:33:38;24.92;;;14.10;;
49548;SDS011;35450;44.518;7.466;2023-03-20T07:36:43;19.10;;;11.95;;
49548;SDS011;35450;44.518;7.466;2023-03-20T07:39:48;16.85;;;11.85;;
49548;SDS011;35450;44.518;7.466;2023-03-20T07:43:19;21.27;;;12.13;;
49548;SDS011;35450;44.518;7.466;2023-03-20T07:46:42;20.50;;;12.70;;
49548;SDS011;35450;44.518;7.466;2023-03-20T07:49:48;23.15;;;13.50;;
49548;SDS011;35450;44.518;7.466;2023-03-20T07:52:52;22.05;;;13.15;;
49548;SDS011;35450;44.518;7.466;2023-03-20T07:55:58;24.42;;;12.70;;
49548;SDS011;35450;44.518;7.466;2023-03-20T07:59:04;23.27;;;12.48;;
49548;SDS011;35450;44.518;7.466;2023-03-20T08:02:15;17.38;;;12.77;;
49548;SDS011;35450;44.518;7.466;2023-03-20T08:05:20;19.63;;;12.70;;
49548;SDS011;35450;44.518;7.466;2023-03-20T08:08:24;20.27;;;12.50;;
49548;SDS011;35450;44.518;7.466;2023-03-20T08:11:28;18.20;;;12.70;;
49548;SDS011;35450;44.518;7.466;2023-03-20T08:14:32;18.77;;;11.90;;
49548;SDS011;35450;44.518;7.466;2023-03-20T08:17:36;19.73;;;11.85;;
49548;SDS011;35450;44.518;7.466;2023-03-20T08:20:40;24.73;;;12.80;;
49548;SDS011;35450;44.518;7.466;2023-03-20T08:23:43;21.95;;;13.18;;
49548;SDS011;35450;44.518;7.466;2023-03-20T08:26:48;21.45;;;12.13;;
49548;SDS011;35450;44.518;7.466;2023-03-20T08:29:52;17.88;;;11.55;;
49548;SDS011;35450;44.518;7.466;2023-03-20T08:32:56;22.13;;;12.65;;
49548;SDS011;35450;44.518;7.466;2023-03-20T08:36:01;27.48;;;12.18;;
49548;SDS011;35450;44.518;7.466;2023-03-20T08:39:05;32.13;;;13.05;;
49548;SDS011;35450;44.518;7.466;2023-03-20T08:42:09;24.15;;;12.88;;
49548;SDS011;35450;44.518;7.466;2023-03-20T08:45:14;22.08;;;13.13;;
49548;SDS011;35450;44.518;7.466;2023-03-20T08:48:19;26.10;;;14.10;;
49548;SDS011;35450;44.518;7.466;2023-03-20T08:51:24;19.27;;;13.85;;
49548;SDS011;35450;44.518;7.466;2023-03-20T08:54:28;25.20;;;14.15;;
49548;SDS011;35450;44.518;7.466;2023-03-20T08:57:33;24.05;;;14.25;;
49548;SDS011;35450;44.518;7.466;2023-03-20T09:00:37;19.45;;;14.57;;
49548;SDS011;35450;44.518;7.466;2023-03-20T09:03:42;20.55;;;15.00;;
49548;SDS011;35450;44.518;7.466;2023-03-20T09:06:46;23.92;;;14.80;;
49548;SDS011;35450;44.518;7.466;2023-03-20T09:09:51;31.35;;;16.75;;
49548;SDS011;35450;44.518;7.466;2023-03-20T09:12:55;23.80;;;18.02;;
49548;SDS011;35450;44.518;7.466;2023-03-20T09:15:59;25.08;;;16.25;;
49548;SDS011;35450;44.518;7.466;2023-03-20T09:19:04;25.83;;;16.52;;
49548;SDS011;35450;44.518;7.466;2023-03-20T09:22:08;25.48;;;16.65;;
49548;SDS011;35450;44.518;7.466;2023-03-20T09:25:17;25.75;;;14.85;;
49548;SDS011;35450;44.518;7.466;2023-03-20T09:28:21;23.02;;;16.73;;
49548;SDS011;35450;44.518;7.466;2023-03-20T09:31:25;24.80;;;16.98;;
49548;SDS011;35450;44.518;7.466;2023-03-20T09:34:29;23.42;;;16.42;;
49548;SDS011;35450;44.518;7.466;2023-03-20T09:37:33;24.90;;;16.08;;
49548;SDS011;35450;44.518;7.466;2023-03-20T09:40:47;24.70;;;16.17;;
49548;SDS011;35450;44.518;7.466;2023-03-20T09:43:57;25.45;;;17.10;;
49548;SDS011;35450;44.518;7.466;2023-03-20T09:54:21;25.20;;;16.13;;
49548;SDS011;35450;44.518;7.466;2023-03-20T09:57:39;24.80;;;15.77;;
49548;SDS011;35450;44.518;7.466;2023-03-20T10:00:46;22.13;;;15.30;;
49548;SDS011;35450;44.518;7.466;2023-03-20T10:04:00;27.33;;;16.25;;
49548;SDS011;35450;44.518;7.466;2023-03-20T10:07:10;19.95;;;14.38;;
49548;SDS011;35450;44.518;7.466;2023-03-20T10:10:21;20.00;;;14.10;;
49548;SDS011;35450;44.518;7.466;2023-03-20T10:17:03;21.45;;;14.98;;
49548;SDS011;35450;44.518;7.466;2023-03-20T10:23:46;23.60;;;16.55;;
49548;SDS011;35450;44.518;7.466;2023-03-20T10:27:18;20.23;;;15.35;;
49548;SDS011;35450;44.518;7.466;2023-03-20T10:40:28;20.38;;;14.90;;
49548;SDS011;35450;44.518;7.466;2023-03-20T10:43:34;29.05;;;15.70;;
49548;SDS011;35450;44.518;7.466;2023-03-20T10:46:42;20.95;;;14.57;;
49548;SDS011;35450;44.518;7.466;2023-03-20T10:49:53;20.48;;;15.18;;
49548;SDS011;35450;44.518;7.466;2023-03-20T10:53:14;26.60;;;19.40;;
49548;SDS011;35450;44.518;7.466;2023-03-20T10:56:41;20.00;;;15.30;;
49548;SDS011;35450;44.518;7.466;2023-03-20T10:59:51;25.38;;;15.35;;
49548;SDS011;35450;44.518;7.466;2023-03-20T11:02:58;25.48;;;15.73;;
49548;SDS011;35450;44.518;7.466;2023-03-20T11:06:04;24.63;;;15.27;;
49548;SDS011;35450;44.518;7.466;2023-03-20T11:09:25;23.75;;;15.02;;
49548;SDS011;35450;44.518;7.466;2023-03-20T11:12:32;25.35;;;16.45;;
49548;SDS011;35450;44.518;7.466;2023-03-20T11:15:38;20.30;;;14.82;;
49548;SDS011;35450;44.518;7.466;2023-03-20T11:18:42;26.10;;;14.30;;
49548;SDS011;35450;44.518;7.466;2023-03-20T11:21:49;26.42;;;14.45;;
49548;SDS011;35450;44.518;7.466;2023-03-20T11:25:04;22.42;;;15.38;;
49548;SDS011;35450;44.518;7.466;2023-03-20T11:28:19;22.95;;;15.05;;
49548;SDS011;35450;44.518;7.466;2023-03-20T11:31:34;25.15;;;15.15;;
49548;SDS011;35450;44.518;7.466;2023-03-20T11:34:43;24.08;;;15.10;;
49548;SDS011;35450;44.518;7.466;2023-03-20T11:37:48;22.75;;;15.95;;
49548;SDS011;35450;44.518;7.466;2023-03-20T11:40:54;22.38;;;15.95;;
49548;SDS011;35450;44.518;7.466;2023-03-20T11:43:58;21.50;;;14.68;;
49548;SDS011;35450;44.518;7.466;2023-03-20T11:47:09;21.85;;;15.35;;
49548;SDS011;35450;44.518;7.466;2023-03-20T11:57:12;23.38;;;15.25;;
49548;SDS011;35450;44.518;7.466;2023-03-20T12:00:39;20.67;;;14.77;;
49548;SDS011;35450;44.518;7.466;2023-03-20T12:10:15;22.73;;;14.80;;
49548;SDS011;35450;44.518;7.466;2023-03-20T12:13:26;22.05;;;14.65;;
49548;SDS011;35450;44.518;7.466;2023-03-20T12:16:35;25.75;;;15.00;;
49548;SDS011;35450;44.518;7.466;2023-03-20T12:19:39;18.17;;;13.70;;
49548;SDS011;35450;44.518;7.466;2023-03-20T12:22:50;25.08;;;13.93;;
49548;SDS011;35450;44.518;7.466;2023-03-20T12:29:26;17.75;;;13.52;;
49548;SDS011;35450;44.518;7.466;2023-03-20T12:32:37;20.42;;;14.63;;
49548;SDS011;35450;44.518;7.466;2023-03-20T12:35:55;21.30;;;13.50;;
49548;SDS011;35450;44.518;7.466;2023-03-20T12:39:02;17.45;;;12.20;;
49548;SDS011;35450;44.518;7.466;2023-03-20T12:45:27;20.90;;;12.60;;
49548;SDS011;35450;44.518;7.466;2023-03-20T12:52:01;24.27;;;11.45;;
49548;SDS011;35450;44.518;7.466;2023-03-20T13:01:34;10.68;;;8.75;;
49548;SDS011;35450;44.518;7.466;2023-03-20T13:12:31;14.55;;;10.23;;
49548;SDS011;35450;44.518;7.466;2023-03-20T13:29:29;18.08;;;11.18;;
49548;SDS011;35450;44.518;7.466;2023-03-20T13:33:30;21.85;;;10.75;;
49548;SDS011;35450;44.518;7.466;2023-03-20T13:43:23;13.85;;;8.82;;
49548;SDS011;35450;44.518;7.466;2023-03-20T13:46:42;11.70;;;8.48;;
49548;SDS011;35450;44.518;7.466;2023-03-20T13:49:59;10.18;;;8.38;;
49548;SDS011;35450;44.518;7.466;2023-03-20T13:57:05;12.50;;;8.35;;
49548;SDS011;35450;44.518;7.466;2023-03-20T14:00:19;13.45;;;7.93;;
49548;SDS011;35450;44.518;7.466;2023-03-20T14:03:37;12.48;;;8.70;;
49548;SDS011;35450;44.518;7.466;2023-03-20T14:13:26;15.23;;;9.93;;
49548;SDS011;35450;44.518;7.466;2023-03-20T14:16:32;14.48;;;8.32;;
49548;SDS011;35450;44.518;7.466;2023-03-20T14:19:36;15.32;;;9.27;;
49548;SDS011;35450;44.518;7.466;2023-03-20T14:22:42;13.90;;;8.30;;
49548;SDS011;35450;44.518;7.466;2023-03-20T14:25:54;41.30;;;9.52;;
49548;SDS011;35450;44.518;7.466;2023-03-20T14:38:29;14.52;;;8.38;;
49548;SDS011;35450;44.518;7.466;2023-03-20T14:42:04;16.60;;;7.45;;
49548;SDS011;35450;44.518;7.466;2023-03-20T14:48:58;12.88;;;7.25;;
49548;SDS011;35450;44.518;7.466;2023-03-20T14:55:46;12.13;;;8.15;;
49548;SDS011;35450;44.518;7.466;2023-03-20T14:59:03;16.85;;;8.50;;
49548;SDS011;35450;44.518;7.466;2023-03-20T15:02:21;8.65;;;7.55;;
49548;SDS011;35450;44.518;7.466;2023-03-20T15:05:33;10.05;;;8.13;;
49548;SDS011;35450;44.518;7.466;2023-03-20T15:08:46;11.52;;;6.85;;
49548;SDS011;35450;44.518;7.466;2023-03-20T15:12:12;8.68;;;6.68;;
49548;SDS011;35450;44.518;7.466;2023-03-20T15:15:24;8.68;;;5.93;;
49548;SDS011;35450;44.518;7.466;2023-03-20T15:18:37;8.35;;;5.65;;
49548;SDS011;35450;44.518;7.466;2023-03-20T15:21:46;10.40;;;6.53;;
49548;SDS011;35450;44.518;7.466;2023-03-20T15:24:55;8.13;;;7.15;;
49548;SDS011;35450;44.518;7.466;2023-03-20T15:27:59;10.50;;;6.68;;
49548;SDS011;35450;44.518;7.466;2023-03-20T15:31:11;10.02;;;6.38;;
49548;SDS011;35450;44.518;7.466;2023-03-20T15:34:30;8.80;;;6.75;;
49548;SDS011;35450;44.518;7.466;2023-03-20T15:37:35;10.50;;;7.22;;
49548;SDS011;35450;44.518;7.466;2023-03-20T15:40:39;12.55;;;6.80;;
49548;SDS011;35450;44.518;7.466;2023-03-20T15:43:44;11.98;;;7.40;;
49548;SDS011;35450;44.518;7.466;2023-03-20T15:47:00;10.45;;;6.97;;
49548;SDS011;35450;44.518;7.466;2023-03-20T15:50:10;13.48;;;7.05;;
49548;SDS011;35450;44.518;7.466;2023-03-20T15:53:17;9.68;;;7.20;;
49548;SDS011;35450;44.518;7.466;2023-03-20T15:56:24;11.00;;;7.10;;
49548;SDS011;35450;44.518;7.466;2023-03-20T15:59:30;10.02;;;7.18;;
49548;SDS011;35450;44.518;7.466;2023-03-20T16:02:36;11.10;;;6.85;;
49548;SDS011;35450;44.518;7.466;2023-03-20T16:05:41;11.45;;;7.20;;
49548;SDS011;35450;44.518;7.466;2023-03-20T16:13:35;20.35;;;6.95;;
49548;SDS011;35450;44.518;7.466;2023-03-20T16:16:42;8.70;;;7.47;;
49548;SDS011;35450;44.518;7.466;2023-03-20T16:19:51;12.48;;;6.70;;
49548;SDS011;35450;44.518;7.466;2023-03-20T16:22:58;11.18;;;6.60;;
49548;SDS011;35450;44.518;7.466;2023-03-20T16:26:06;11.07;;;6.80;;
49548;SDS011;35450;44.518;7.466;2023-03-20T16:29:13;11.45;;;6.85;;
49548;SDS011;35450;44.518;7.466;2023-03-20T16:32:38;10.88;;;6.95;;
49548;SDS011;35450;44.518;7.466;2023-03-20T16:35:47;18.05;;;7.63;;
49548;SDS011;35450;44.518;7.466;2023-03-20T16:38:53;10.15;;;6.90;;
49548;SDS011;35450;44.518;7.466;2023-03-20T16:45:29;16.73;;;8.25;;
49548;SDS011;35450;44.518;7.466;2023-03-20T16:48:36;9.25;;;7.88;;
49548;SDS011;35450;44.518;7.466;2023-03-20T16:51:41;10.50;;;7.05;;
49548;SDS011;35450;44.518;7.466;2023-03-20T16:54:46;10.50;;;7.88;;
49548;SDS011;35450;44.518;7.466;2023-03-20T16:57:50;10.13;;;8.23;;
49548;SDS011;35450;44.518;7.466;2023-03-20T17:04:51;25.70;;;9.93;;
49548;SDS011;35450;44.518;7.466;2023-03-20T17:07:38;21.23;;;9.52;;
49548;SDS011;35450;44.518;7.466;2023-03-20T17:10:48;16.25;;;7.72;;
49548;SDS011;35450;44.518;7.466;2023-03-20T17:13:55;15.57;;;8.52;;
49548;SDS011;35450;44.518;7.466;2023-03-20T17:16:59;10.90;;;8.07;;
49548;SDS011;35450;44.518;7.466;2023-03-20T17:20:03;8.13;;;7.28;;
49548;SDS011;35450;44.518;7.466;2023-03-20T17:23:15;13.15;;;7.43;;
49548;SDS011;35450;44.518;7.466;2023-03-20T17:26:23;13.18;;;7.68;;
49548;SDS011;35450;44.518;7.466;2023-03-20T17:29:28;14.50;;;7.65;;
49548;SDS011;35450;44.518;7.466;2023-03-20T17:32:32;17.00;;;7.75;;
49548;SDS011;35450;44.518;7.466;2023-03-20T17:35:36;12.32;;;7.63;;
49548;SDS011;35450;44.518;7.466;2023-03-20T17:38:40;16.23;;;7.90;;
49548;SDS011;35450;44.518;7.466;2023-03-20T17:41:44;13.63;;;8.27;;
49548;SDS011;35450;44.518;7.466;2023-03-20T17:44:48;11.88;;;7.63;;
49548;SDS011;35450;44.518;7.466;2023-03-20T17:47:53;13.48;;;7.90;;
49548;SDS011;35450;44.518;7.466;2023-03-20T17:50:57;17.02;;;9.15;;
49548;SDS011;35450;44.518;7.466;2023-03-20T17:54:01;15.75;;;8.38;;
49548;SDS011;35450;44.518;7.466;2023-03-20T17:57:05;11.48;;;8.32;;
49548;SDS011;35450;44.518;7.466;2023-03-20T18:00:19;12.20;;;8.07;;
49548;SDS011;35450;44.518;7.466;2023-03-20T18:03:25;21.58;;;13.52;;
49548;SDS011;35450;44.518;7.466;2023-03-20T18:06:31;20.48;;;9.02;;
49548;SDS011;35450;44.518;7.466;2023-03-20T18:09:35;18.00;;;8.38;;
49548;SDS011;35450;44.518;7.466;2023-03-20T18:12:39;18.10;;;9.05;;
49548;SDS011;35450;44.518;7.466;2023-03-20T18:15:43;12.30;;;9.13;;
49548;SDS011;35450;44.518;7.466;2023-03-20T18:18:50;10.27;;;8.35;;
49548;SDS011;35450;44.518;7.466;2023-03-20T18:21:55;12.10;;;9.27;;
49548;SDS011;35450;44.518;7.466;2023-03-20T18:24:59;13.88;;;8.02;;
49548;SDS011;35450;44.518;7.466;2023-03-20T18:28:04;14.05;;;8.48;;
49548;SDS011;35450;44.518;7.466;2023-03-20T18:31:10;15.68;;;7.95;;
49548;SDS011;35450;44.518;7.466;2023-03-20T18:34:16;10.27;;;8.30;;
49548;SDS011;35450;44.518;7.466;2023-03-20T18:37:21;14.93;;;9.02;;
49548;SDS011;35450;44.518;7.466;2023-03-20T18:43:35;10.85;;;8.30;;
49548;SDS011;35450;44.518;7.466;2023-03-20T18:46:40;12.85;;;8.10;;
49548;SDS011;35450;44.518;7.466;2023-03-20T18:49:45;18.80;;;9.68;;
49548;SDS011;35450;44.518;7.466;2023-03-20T18:52:49;11.50;;;8.77;;
49548;SDS011;35450;44.518;7.466;2023-03-20T18:55:54;12.40;;;8.27;;
49548;SDS011;35450;44.518;7.466;2023-03-20T18:58:59;12.82;;;7.90;;
49548;SDS011;35450;44.518;7.466;2023-03-20T19:02:03;12.05;;;8.00;;
49548;SDS011;35450;44.518;7.466;2023-03-20T19:05:07;12.90;;;9.05;;
49548;SDS011;35450;44.518;7.466;2023-03-20T19:08:13;17.63;;;9.52;;
49548;SDS011;35450;44.518;7.466;2023-03-20T19:11:18;12.38;;;8.95;;
49548;SDS011;35450;44.518;7.466;2023-03-20T19:14:23;11.60;;;8.90;;
49548;SDS011;35450;44.518;7.466;2023-03-20T19:17:28;13.20;;;9.20;;
49548;SDS011;35450;44.518;7.466;2023-03-20T19:20:35;11.57;;;8.30;;
49548;SDS011;35450;44.518;7.466;2023-03-20T19:26:48;15.20;;;9.85;;
49548;SDS011;35450;44.518;7.466;2023-03-20T19:29:52;18.15;;;8.70;;
49548;SDS011;35450;44.518;7.466;2023-03-20T19:32:59;12.95;;;8.90;;
49548;SDS011;35450;44.518;7.466;2023-03-20T19:36:03;14.25;;;9.13;;
49548;SDS011;35450;44.518;7.466;2023-03-20T19:39:09;12.55;;;8.55;;
49548;SDS011;35450;44.518;7.466;2023-03-20T19:42:15;11.63;;;9.05;;
49548;SDS011;35450;44.518;7.466;2023-03-20T19:45:19;19.33;;;9.07;;
49548;SDS011;35450;44.518;7.466;2023-03-20T19:48:25;11.20;;;8.63;;
49548;SDS011;35450;44.518;7.466;2023-03-20T19:51:34;14.80;;;9.18;;
49548;SDS011;35450;44.518;7.466;2023-03-20T19:54:38;13.23;;;8.75;;
49548;SDS011;35450;44.518;7.466;2023-03-20T19:57:45;12.98;;;9.30;;
49548;SDS011;35450;44.518;7.466;2023-03-20T20:00:50;14.80;;;9.13;;
49548;SDS011;35450;44.518;7.466;2023-03-20T20:03:54;11.88;;;8.38;;
49548;SDS011;35450;44.518;7.466;2023-03-20T20:07:00;14.50;;;9.02;;
49548;SDS011;35450;44.518;7.466;2023-03-20T20:10:04;15.48;;;9.40;;
49548;SDS011;35450;44.518;7.466;2023-03-20T20:13:12;12.25;;;8.32;;
49548;SDS011;35450;44.518;7.466;2023-03-20T20:16:19;13.27;;;8.50;;
49548;SDS011;35450;44.518;7.466;2023-03-20T20:19:23;11.43;;;9.27;;
49548;SDS011;35450;44.518;7.466;2023-03-20T20:22:27;12.95;;;8.43;;
49548;SDS011;35450;44.518;7.466;2023-03-20T20:25:31;14.82;;;8.63;;
49548;SDS011;35450;44.518;7.466;2023-03-20T20:28:35;21.90;;;8.68;;
49548;SDS011;35450;44.518;7.466;2023-03-20T20:31:39;19.52;;;8.60;;
49548;SDS011;35450;44.518;7.466;2023-03-20T20:34:43;18.42;;;11.23;;
49548;SDS011;35450;44.518;7.466;2023-03-20T20:37:48;12.27;;;9.20;;
49548;SDS011;35450;44.518;7.466;2023-03-20T20:40:53;14.32;;;9.23;;
49548;SDS011;35450;44.518;7.466;2023-03-20T20:43:57;14.05;;;8.30;;
49548;SDS011;35450;44.518;7.466;2023-03-20T20:47:01;11.85;;;8.80;;
49548;SDS011;35450;44.518;7.466;2023-03-20T20:50:05;14.82;;;8.55;;
49548;SDS011;35450;44.518;7.466;2023-03-20T20:53:10;13.05;;;8.45;;
49548;SDS011;35450;44.518;7.466;2023-03-20T20:56:14;13.35;;;8.82;;
49548;SDS011;35450;44.518;7.466;2023-03-20T20:59:18;11.52;;;8.40;;
49548;SDS011;35450;44.518;7.466;2023-03-20T21:02:22;12.70;;;8.98;;
49548;SDS011;35450;44.518;7.466;2023-03-20T21:05:27;12.05;;;8.43;;
49548;SDS011;35450;44.518;7.466;2023-03-20T21:08:33;13.70;;;9.30;;
49548;SDS011;35450;44.518;7.466;2023-03-20T21:11:37;14.18;;;8.52;;
49548;SDS011;35450;44.518;7.466;2023-03-20T21:14:41;12.02;;;8.48;;
49548;SDS011;35450;44.518;7.466;2023-03-20T21:17:46;11.38;;;8.80;;
49548;SDS011;35450;44.518;7.466;2023-03-20T21:20:50;12.77;;;8.43;;
49548;SDS011;35450;44.518;7.466;2023-03-20T21:23:54;12.55;;;8.43;;
49548;SDS011;35450;44.518;7.466;2023-03-20T21:26:58;13.38;;;8.88;;
49548;SDS011;35450;44.518;7.466;2023-03-20T21:30:03;14.23;;;8.93;;